Pont-Rouge, Canada
Current Conditions -  °F | °C
As of 7:39 AM on Monday 24 Nov 2014 (Local Time) from CYOY Reporting Station
Moderate Rain Moderate Rain  
Wind Chill: 39°   Ceiling: 2700
Heat Index: 43°   Visibility: 2.5mi
Dew Point: 39°   Wind: 6mph
Humidity: 87%   Direction: 80°E
Pressure: 29.72"   Gusts: NA
Location:  46.75°N, 71.7°W
Report Text: CYOY 241239Z AUTO 08005KT 340V120 2 1/2SM RA BKN027 BKN041 OVC048 06/04 A2972
Loading
Personal Weather Stations






























Interactive Weather Map New forecast layout! Learn more

10-Day Weather Forecast

Advertisements
Track Severe Weather on mobile